Sumifukumaru No.5 — JD3058 — position and weather

sailwx.info

Track history (hours):
 
Tides and Currents Weather Stations Pressure Air Temp Water Temp Dewpoint Dewpoint Depression Visibility Wind Speed Wind Dir Waves Ship Positions

Sumifukumaru No.5

Last reported at 2016-May-02 21:25 UTC. Time now 2016-May-05 23:52 UTC.
Position N 34°35' E 138°39'.

Length 75 m; draft 4.4 m.

Type: Cargo ship. MMSI: 431001371.

Date/timePositionNaut miles runAvg speedWind from/ knotsBaromVisibWave heightAir tempDewpointWater temp
2016-May-02 21:25N 34°35' E 138°39'5510.8
2016-May-02 16:22N 34°51' E 139°43'1211.0
2016-May-02 15:18N 34°53' E 139°57'811.0
2016-May-02 14:32N 34°58' E 140°05'2710.8
2016-May-02 12:03N 35°15' E 140°30'44 9.4
2016-May-02 07:22N 35°58' E 140°43'3 3.8
2016-May-02 06:33N 35°56' E 140°40'3 0.2
2016-May-01 13:21N 35°58' E 140°42'911.4
2016-May-01 12:33N 35°51' E 140°50'1111.1
2016-May-01 11:33N 35°40' E 140°53'1312.1
2016-May-01 10:27N 35°30' E 140°43'1312.5
2016-May-01 09:27N 35°19' E 140°35'2513.3
2016-May-01 07:33N 35°02' E 140°13'1513.1
2016-May-01 06:26N 34°54' E 139°58'1112.6
2016-May-01 05:33N 34°53' E 139°44'1110.6
2016-May-01 04:33N 35°04' E 139°44'1211.7
2016-May-01 03:33N 35°15' E 139°46'1110.7
2016-May-01 02:34N 35°26' E 139°45'1312.5
2016-May-01 01:33N 35°35' E 139°56'7 6.8
2016-May-01 00:33N 35°41' E 139°57'0 0.0
2016-Apr-30 23:26N 35°41' E 139°57'0 0.0
2016-Apr-30 22:20N 35°41' E 139°57'0 0.0
2016-Apr-30 21:32N 35°41' E 139°57'0 0.0
2016-Apr-30 20:29N 35°41' E 139°57'0 0.0
2016-Apr-30 19:33N 35°41' E 139°57'1 0.9
2016-Apr-30 18:33N 35°40' E 139°57'0 0.0
2016-Apr-30 17:33N 35°40' E 139°57'0 0.0
2016-Apr-30 16:21N 35°40' E 139°57'0 0.0
2016-Apr-30 15:30N 35°40' E 139°57'0 0.0
2016-Apr-30 14:33N 35°40' E 139°57'3 3.0
2016-Apr-30 13:33N 35°38' E 139°59'1 0.8
2016-Apr-30 12:22N 35°37' E 139°58'0 0.0
2016-Apr-30 11:22N 35°37' E 139°58'0 0.0
2016-Apr-30 10:28N 35°37' E 139°58'0 0.0
2016-Apr-30 09:28N 35°37' E 139°58'4 4.3
2016-Apr-30 08:33N 35°33' E 139°56'1111.5
2016-Apr-30 07:34N 35°25' E 139°47'10 9.9
2016-Apr-30 06:31N 35°14' E 139°47'244 9.0
2016-Apr-29 03:33N 34°08' E 135°02'1111.2
2016-Apr-29 02:33N 34°19' E 135°04'1211.6
2016-Apr-29 01:33N 34°28' E 135°13'1211.6
2016-Apr-29 00:32N 34°36' E 135°23'4 0.2
2016-Apr-28 08:33N 34°35' E 135°27'1 0.1
2016-Apr-27 20:33N 34°35' E 135°28'1 0.2
2016-Apr-27 13:33N 34°35' E 135°27'0 0.0
2016-Apr-27 10:31N 34°35' E 135°27'0 0.0
2016-Apr-27 08:19N 34°35' E 135°27'0 0.0
2016-Apr-27 05:20N 34°35' E 135°27'0 0.1
2016-Apr-27 00:33N 34°35' E 135°27'0 0.0
2016-Apr-26 02:04N 34°35' E 135°27'1 0.0
2016-Apr-25 07:21N 34°35' E 135°27'4 5.5
2016-Apr-25 06:33N 34°40' E 135°26'1 0.7
2016-Apr-25 05:32N 34°40' E 135°27'0 0.0
2016-Apr-25 03:20N 34°40' E 135°27'0 0.0
2016-Apr-25 02:32N 34°40' E 135°27'0 0.0
2016-Apr-25 00:08N 34°40' E 135°27'0 0.0
2016-Apr-24 23:32N 34°40' E 135°27'0 0.0
2016-Apr-24 21:32N 34°40' E 135°27'0 0.0
2016-Apr-24 20:14N 34°40' E 135°27'0 0.0
2016-Apr-24 19:32N 34°40' E 135°27'0 0.0
2016-Apr-24 18:32N 34°40' E 135°27'0 0.0
2016-Apr-24 17:32N 34°40' E 135°27'0 0.0
2016-Apr-24 15:26N 34°40' E 135°27'0 0.0
2016-Apr-24 14:32N 34°40' E 135°27'0 0.0
2016-Apr-24 13:32N 34°40' E 135°27'0 0.0
2016-Apr-24 12:32N 34°40' E 135°27'0 0.0
2016-Apr-24 11:32N 34°40' E 135°27'0 0.0
2016-Apr-24 10:26N 34°40' E 135°27'0 0.0
2016-Apr-24 09:26N 34°40' E 135°27'0 0.0
2016-Apr-24 07:14N 34°40' E 135°27'0 0.0
2016-Apr-24 06:26N 34°40' E 135°27'0 0.0
2016-Apr-24 05:32N 34°40' E 135°27'0 0.0
2016-Apr-24 04:20N 34°40' E 135°27'0 0.0
2016-Apr-24 03:26N 34°40' E 135°27'0 0.0
2016-Apr-24 02:32N 34°40' E 135°27'0 0.0
2016-Apr-24 01:32N 34°40' E 135°27'0 0.0
2016-Apr-24 00:26N 34°40' E 135°27'0 0.0
2016-Apr-23 23:32N 34°40' E 135°27'0 0.0
2016-Apr-23 22:33N 34°40' E 135°27'5 4.7
2016-Apr-23 21:32N 34°37' E 135°22'0 0.0
2016-Apr-23 20:32N 34°37' E 135°22'0 0.0
2016-Apr-23 19:32N 34°37' E 135°22'0 0.0
2016-Apr-23 18:32N 34°37' E 135°22'0 0.0
2016-Apr-23 17:20N 34°37' E 135°22'0 0.0
2016-Apr-23 16:32N 34°37' E 135°22'0 0.0
2016-Apr-23 15:32N 34°37' E 135°22'0 0.1
2016-Apr-23 14:33N 34°37' E 135°22'1010.4
2016-Apr-23 13:33N 34°29' E 135°14'1311.9
2016-Apr-23 12:27N 34°19' E 135°04'  
Track history (hours):
 
Tides and Currents Weather Stations Pressure Air Temp Water Temp Dewpoint Dewpoint Depression Visibility Wind Speed Wind Dir Waves Ship Positions

Sumifukumaru No.5

Last reported at 2016-May-02 21:25 UTC. Time now 2016-May-05 23:52 UTC.
Position N 34°35' E 138°39'.

Length 75 m; draft 4.4 m.

Type: Cargo ship. MMSI: 431001371.

Date/timePositionNaut miles runAvg speedWind from/ knotsBaromVisibWave heightAir tempDewpointWater temp
2016-May-02 21:25N 34°35' E 138°39'5510.8
2016-May-02 16:22N 34°51' E 139°43'1211.0
2016-May-02 15:18N 34°53' E 139°57'811.0
2016-May-02 14:32N 34°58' E 140°05'2710.8
2016-May-02 12:03N 35°15' E 140°30'44 9.4
2016-May-02 07:22N 35°58' E 140°43'3 3.8
2016-May-02 06:33N 35°56' E 140°40'3 0.2
2016-May-01 13:21N 35°58' E 140°42'911.4
2016-May-01 12:33N 35°51' E 140°50'1111.1
2016-May-01 11:33N 35°40' E 140°53'1312.1
2016-May-01 10:27N 35°30' E 140°43'1312.5
2016-May-01 09:27N 35°19' E 140°35'2513.3
2016-May-01 07:33N 35°02' E 140°13'1513.1
2016-May-01 06:26N 34°54' E 139°58'1112.6
2016-May-01 05:33N 34°53' E 139°44'1110.6
2016-May-01 04:33N 35°04' E 139°44'1211.7
2016-May-01 03:33N 35°15' E 139°46'1110.7
2016-May-01 02:34N 35°26' E 139°45'1312.5
2016-May-01 01:33N 35°35' E 139°56'7 6.8
2016-May-01 00:33N 35°41' E 139°57'0 0.0
2016-Apr-30 23:26N 35°41' E 139°57'0 0.0
2016-Apr-30 22:20N 35°41' E 139°57'0 0.0
2016-Apr-30 21:32N 35°41' E 139°57'0 0.0
2016-Apr-30 20:29N 35°41' E 139°57'0 0.0
2016-Apr-30 19:33N 35°41' E 139°57'1 0.9
2016-Apr-30 18:33N 35°40' E 139°57'0 0.0
2016-Apr-30 17:33N 35°40' E 139°57'0 0.0
2016-Apr-30 16:21N 35°40' E 139°57'0 0.0
2016-Apr-30 15:30N 35°40' E 139°57'0 0.0
2016-Apr-30 14:33N 35°40' E 139°57'3 3.0
2016-Apr-30 13:33N 35°38' E 139°59'1 0.8
2016-Apr-30 12:22N 35°37' E 139°58'0 0.0
2016-Apr-30 11:22N 35°37' E 139°58'0 0.0
2016-Apr-30 10:28N 35°37' E 139°58'0 0.0
2016-Apr-30 09:28N 35°37' E 139°58'4 4.3
2016-Apr-30 08:33N 35°33' E 139°56'1111.5
2016-Apr-30 07:34N 35°25' E 139°47'10 9.9
2016-Apr-30 06:31N 35°14' E 139°47'244 9.0
2016-Apr-29 03:33N 34°08' E 135°02'1111.2
2016-Apr-29 02:33N 34°19' E 135°04'1211.6
2016-Apr-29 01:33N 34°28' E 135°13'1211.6
2016-Apr-29 00:32N 34°36' E 135°23'4 0.2
2016-Apr-28 08:33N 34°35' E 135°27'1 0.1
2016-Apr-27 20:33N 34°35' E 135°28'1 0.2
2016-Apr-27 13:33N 34°35' E 135°27'0 0.0
2016-Apr-27 10:31N 34°35' E 135°27'0 0.0
2016-Apr-27 08:19N 34°35' E 135°27'0 0.0
2016-Apr-27 05:20N 34°35' E 135°27'0 0.1
2016-Apr-27 00:33N 34°35' E 135°27'0 0.0
2016-Apr-26 02:04N 34°35' E 135°27'1 0.0
2016-Apr-25 07:21N 34°35' E 135°27'4 5.5
2016-Apr-25 06:33N 34°40' E 135°26'1 0.7
2016-Apr-25 05:32N 34°40' E 135°27'0 0.0
2016-Apr-25 03:20N 34°40' E 135°27'0 0.0
2016-Apr-25 02:32N 34°40' E 135°27'0 0.0
2016-Apr-25 00:08N 34°40' E 135°27'0 0.0
2016-Apr-24 23:32N 34°40' E 135°27'0 0.0
2016-Apr-24 21:32N 34°40' E 135°27'0 0.0
2016-Apr-24 20:14N 34°40' E 135°27'0 0.0
2016-Apr-24 19:32N 34°40' E 135°27'0 0.0
2016-Apr-24 18:32N 34°40' E 135°27'0 0.0
2016-Apr-24 17:32N 34°40' E 135°27'0 0.0
2016-Apr-24 15:26N 34°40' E 135°27'0 0.0
2016-Apr-24 14:32N 34°40' E 135°27'0 0.0
2016-Apr-24 13:32N 34°40' E 135°27'0 0.0
2016-Apr-24 12:32N 34°40' E 135°27'0 0.0
2016-Apr-24 11:32N 34°40' E 135°27'0 0.0
2016-Apr-24 10:26N 34°40' E 135°27'0 0.0
2016-Apr-24 09:26N 34°40' E 135°27'0 0.0
2016-Apr-24 07:14N 34°40' E 135°27'0 0.0
2016-Apr-24 06:26N 34°40' E 135°27'0 0.0
2016-Apr-24 05:32N 34°40' E 135°27'0 0.0
2016-Apr-24 04:20N 34°40' E 135°27'0 0.0
2016-Apr-24 03:26N 34°40' E 135°27'0 0.0
2016-Apr-24 02:32N 34°40' E 135°27'0 0.0
2016-Apr-24 01:32N 34°40' E 135°27'0 0.0
2016-Apr-24 00:26N 34°40' E 135°27'0 0.0
2016-Apr-23 23:32N 34°40' E 135°27'0 0.0
2016-Apr-23 22:33N 34°40' E 135°27'5 4.7
2016-Apr-23 21:32N 34°37' E 135°22'0 0.0
2016-Apr-23 20:32N 34°37' E 135°22'0 0.0
2016-Apr-23 19:32N 34°37' E 135°22'0 0.0
2016-Apr-23 18:32N 34°37' E 135°22'0 0.0
2016-Apr-23 17:20N 34°37' E 135°22'0 0.0
2016-Apr-23 16:32N 34°37' E 135°22'0 0.0
2016-Apr-23 15:32N 34°37' E 135°22'0 0.1
2016-Apr-23 14:33N 34°37' E 135°22'1010.4
2016-Apr-23 13:33N 34°29' E 135°14'1311.9
2016-Apr-23 12:27N 34°19' E 135°04'  

Dump ship's entire track history